sensor_id;sensor_type;location;lat;lon;timestamp;pressure;altitude;pressure_sealevel;temperature;humidity
21594;BME280;10959;51.328;7.322;2022-11-04T00:00:44;97352.69;;;13.27;77.80
21594;BME280;10959;51.328;7.322;2022-11-04T00:03:10;97357.84;;;13.30;77.65
21594;BME280;10959;51.328;7.322;2022-11-04T00:05:36;97380.97;;;13.35;77.26
21594;BME280;10959;51.328;7.322;2022-11-04T00:08:03;97379.00;;;13.37;77.09
21594;BME280;10959;51.328;7.322;2022-11-04T00:10:52;97382.53;;;13.26;76.97
21594;BME280;10959;51.328;7.322;2022-11-04T00:13:37;97376.03;;;13.28;77.50
21594;BME280;10959;51.328;7.322;2022-11-04T00:16:04;97380.72;;;13.38;77.01
21594;BME280;10959;51.328;7.322;2022-11-04T00:18:48;97379.47;;;13.30;77.23
21594;BME280;10959;51.328;7.322;2022-11-04T00:21:15;97390.03;;;13.34;77.13
21594;BME280;10959;51.328;7.322;2022-11-04T00:23:59;97394.25;;;13.26;77.02
21594;BME280;10959;51.328;7.322;2022-11-04T00:26:44;97397.91;;;13.25;77.06
21594;BME280;10959;51.328;7.322;2022-11-04T00:29:28;97406.16;;;13.24;76.87
21594;BME280;10959;51.328;7.322;2022-11-04T00:31:54;97413.28;;;13.25;76.71
21594;BME280;10959;51.328;7.322;2022-11-04T00:34:38;97418.06;;;13.21;76.36
21594;BME280;10959;51.328;7.322;2022-11-04T00:37:05;97410.94;;;13.20;76.40
21594;BME280;10959;51.328;7.322;2022-11-04T00:39:31;97409.50;;;13.16;76.59
21594;BME280;10959;51.328;7.322;2022-11-04T00:41:59;97418.84;;;13.12;76.17
21594;BME280;10959;51.328;7.322;2022-11-04T00:44:25;97424.53;;;13.09;76.35
21594;BME280;10959;51.328;7.322;2022-11-04T00:46:52;97412.56;;;13.11;76.20
21594;BME280;10959;51.328;7.322;2022-11-04T00:49:18;97420.34;;;13.05;75.97
21594;BME280;10959;51.328;7.322;2022-11-04T00:51:45;97425.25;;;13.00;75.97
21594;BME280;10959;51.328;7.322;2022-11-04T00:54:11;97413.72;;;12.98;75.94
21594;BME280;10959;51.328;7.322;2022-11-04T00:56:38;97422.06;;;12.94;76.12
21594;BME280;10959;51.328;7.322;2022-11-04T00:59:06;97431.16;;;12.93;75.97
21594;BME280;10959;51.328;7.322;2022-11-04T01:01:33;97427.72;;;12.91;76.10
21594;BME280;10959;51.328;7.322;2022-11-04T01:03:59;97433.25;;;12.90;75.81
21594;BME280;10959;51.328;7.322;2022-11-04T01:06:26;97446.16;;;12.86;76.17
21594;BME280;10959;51.328;7.322;2022-11-04T01:08:54;97444.44;;;12.85;76.24
21594;BME280;10959;51.328;7.322;2022-11-04T01:11:21;97451.78;;;12.83;76.37
21594;BME280;10959;51.328;7.322;2022-11-04T01:13:49;97454.13;;;12.88;76.20
21594;BME280;10959;51.328;7.322;2022-11-04T01:16:17;97458.66;;;12.87;76.09
21594;BME280;10959;51.328;7.322;2022-11-04T01:18:44;97446.16;;;12.86;76.07
21594;BME280;10959;51.328;7.322;2022-11-04T01:21:12;97457.94;;;12.85;75.97
21594;BME280;10959;51.328;7.322;2022-11-04T01:23:39;97449.22;;;12.82;76.33
21594;BME280;10959;51.328;7.322;2022-11-04T01:26:07;97453.25;;;12.76;76.63
21594;BME280;10959;51.328;7.322;2022-11-04T01:28:34;97471.97;;;12.79;76.58
21594;BME280;10959;51.328;7.322;2022-11-04T01:31:04;97477.56;;;12.76;76.50
21594;BME280;10959;51.328;7.322;2022-11-04T01:33:32;97469.00;;;12.82;76.33
21594;BME280;10959;51.328;7.322;2022-11-04T01:35:59;97475.38;;;12.81;76.29
21594;BME280;10959;51.328;7.322;2022-11-04T01:38:27;97477.97;;;12.83;76.25
21594;BME280;10959;51.328;7.322;2022-11-04T01:40:53;97486.19;;;12.81;76.42
21594;BME280;10959;51.328;7.322;2022-11-04T01:43:21;97484.19;;;12.83;76.43
21594;BME280;10959;51.328;7.322;2022-11-04T01:45:51;97484.44;;;12.80;76.38
21594;BME280;10959;51.328;7.322;2022-11-04T01:48:23;97491.84;;;12.78;76.66
21594;BME280;10959;51.328;7.322;2022-11-04T01:50:52;97487.66;;;12.74;76.54
21594;BME280;10959;51.328;7.322;2022-11-04T01:53:22;97488.38;;;12.76;76.76
21594;BME280;10959;51.328;7.322;2022-11-04T01:55:55;97499.44;;;12.73;76.92
21594;BME280;10959;51.328;7.322;2022-11-04T01:58:24;97507.53;;;12.73;77.07
21594;BME280;10959;51.328;7.322;2022-11-04T02:00:51;97505.47;;;12.76;77.21
21594;BME280;10959;51.328;7.322;2022-11-04T02:03:20;97513.44;;;12.78;77.36
21594;BME280;10959;51.328;7.322;2022-11-04T02:05:51;97506.94;;;12.81;77.10
21594;BME280;10959;51.328;7.322;2022-11-04T02:08:17;97504.97;;;12.83;76.98
21594;BME280;10959;51.328;7.322;2022-11-04T02:10:49;97503.38;;;12.80;76.79
21594;BME280;10959;51.328;7.322;2022-11-04T02:13:16;97502.38;;;12.81;77.06
21594;BME280;10959;51.328;7.322;2022-11-04T02:15:46;97509.53;;;12.82;76.62
21594;BME280;10959;51.328;7.322;2022-11-04T02:18:23;97501.41;;;12.71;76.36
21594;BME280;10959;51.328;7.322;2022-11-04T02:21:10;97508.41;;;12.62;76.71
21594;BME280;10959;51.328;7.322;2022-11-04T02:27:11;97501.13;;;12.51;77.13
21594;BME280;10959;51.328;7.322;2022-11-04T02:32:50;97488.75;;;12.60;76.74
21594;BME280;10959;51.328;7.322;2022-11-04T02:35:22;97476.34;;;12.69;76.46
21594;BME280;10959;51.328;7.322;2022-11-04T02:37:54;97480.06;;;12.68;76.50
21594;BME280;10959;51.328;7.322;2022-11-04T02:40:28;97481.03;;;12.67;76.46
21594;BME280;10959;51.328;7.322;2022-11-04T02:43:01;97483.22;;;12.73;76.38
21594;BME280;10959;51.328;7.322;2022-11-04T02:45:35;97493.44;;;12.69;76.12
21594;BME280;10959;51.328;7.322;2022-11-04T02:48:08;97490.59;;;12.71;76.11
21594;BME280;10959;51.328;7.322;2022-11-04T02:50:41;97485.22;;;12.71;76.08
21594;BME280;10959;51.328;7.322;2022-11-04T02:53:13;97496.38;;;12.66;76.21
21594;BME280;10959;51.328;7.322;2022-11-04T02:55:44;97492.34;;;12.72;76.37
21594;BME280;10959;51.328;7.322;2022-11-04T02:58:14;97501.41;;;12.71;76.38
21594;BME280;10959;51.328;7.322;2022-11-04T03:00:45;97499.69;;;12.70;76.49
21594;BME280;10959;51.328;7.322;2022-11-04T03:03:16;97499.19;;;12.76;76.37
21594;BME280;10959;51.328;7.322;2022-11-04T03:05:47;97509.25;;;12.74;76.40
21594;BME280;10959;51.328;7.322;2022-11-04T03:08:17;97505.47;;;12.76;76.51
21594;BME280;10959;51.328;7.322;2022-11-04T03:10:48;97501.41;;;12.71;76.45
21594;BME280;10959;51.328;7.322;2022-11-04T03:13:19;97503.59;;;12.66;76.61
21594;BME280;10959;51.328;7.322;2022-11-04T03:15:50;97499.94;;;12.67;76.21
21594;BME280;10959;51.328;7.322;2022-11-04T03:18:22;97502.63;;;12.67;76.34
21594;BME280;10959;51.328;7.322;2022-11-04T03:20:57;97498.19;;;12.66;76.22
21594;BME280;10959;51.328;7.322;2022-11-04T03:23:24;97492.56;;;12.69;76.38
21594;BME280;10959;51.328;7.322;2022-11-04T03:25:55;97502.75;;;12.65;76.03
21594;BME280;10959;51.328;7.322;2022-11-04T03:28:26;97509.00;;;12.66;75.92
21594;BME280;10959;51.328;7.322;2022-11-04T03:31:01;97507.78;;;12.58;76.12
21594;BME280;10959;51.328;7.322;2022-11-04T03:33:34;97506.28;;;12.54;75.86
21594;BME280;10959;51.328;7.322;2022-11-04T03:36:05;97515.63;;;12.61;75.93
21594;BME280;10959;51.328;7.322;2022-11-04T03:38:33;97515.16;;;12.56;75.82
21594;BME280;10959;51.328;7.322;2022-11-04T03:41:00;97516.63;;;12.60;75.60
21594;BME280;10959;51.328;7.322;2022-11-04T03:43:29;97509.50;;;12.59;75.66
21594;BME280;10959;51.328;7.322;2022-11-04T03:45:55;97504.34;;;12.56;75.60
21594;BME280;10959;51.328;7.322;2022-11-04T03:48:23;97510.00;;;12.53;75.45
21594;BME280;10959;51.328;7.322;2022-11-04T03:50:50;97508.50;;;12.49;75.47
21594;BME280;10959;51.328;7.322;2022-11-04T03:53:19;97507.28;;;12.42;75.01
21594;BME280;10959;51.328;7.322;2022-11-04T03:55:58;97506.50;;;12.28;75.18
21594;BME280;10959;51.328;7.322;2022-11-04T03:58:35;97516.03;;;12.21;75.38
21594;BME280;10959;51.328;7.322;2022-11-04T04:01:16;97518.25;;;12.16;75.43
21594;BME280;10959;51.328;7.322;2022-11-04T04:03:54;97514.56;;;12.17;75.47
21594;BME280;10959;51.328;7.322;2022-11-04T04:06:25;97519.94;;;12.17;75.20
21594;BME280;10959;51.328;7.322;2022-11-04T04:08:55;97519.50;;;12.23;75.18
21594;BME280;10959;51.328;7.322;2022-11-04T04:11:28;97522.16;;;12.12;75.12
21594;BME280;10959;51.328;7.322;2022-11-04T04:14:02;97526.47;;;12.15;74.99
21594;BME280;10959;51.328;7.322;2022-11-04T04:16:33;97526.69;;;12.12;74.93
21594;BME280;10959;51.328;7.322;2022-11-04T04:19:05;97527.78;;;12.09;74.71
21594;BME280;10959;51.328;7.322;2022-11-04T04:21:38;97527.78;;;12.09;75.02
21594;BME280;10959;51.328;7.322;2022-11-04T04:24:07;97533.19;;;12.09;75.18
21594;BME280;10959;51.328;7.322;2022-11-04T04:26:53;97525.22;;;12.07;74.88
21594;BME280;10959;51.328;7.322;2022-11-04T04:29:39;97524.34;;;12.07;74.97
21594;BME280;10959;51.328;7.322;2022-11-04T04:32:08;97529.75;;;12.07;74.77
21594;BME280;10959;51.328;7.322;2022-11-04T04:34:36;97534.91;;;12.10;74.45
21594;BME280;10959;51.328;7.322;2022-11-04T04:37:06;97532.66;;;12.04;74.25
21594;BME280;10959;51.328;7.322;2022-11-04T04:39:37;97541.50;;;12.06;74.30
21594;BME280;10959;51.328;7.322;2022-11-04T04:42:22;97549.09;;;12.01;74.31
21594;BME280;10959;51.328;7.322;2022-11-04T04:45:08;97555.47;;;12.00;74.25
21594;BME280;10959;51.328;7.322;2022-11-04T04:47:39;97558.41;;;11.97;74.45
21594;BME280;10959;51.328;7.322;2022-11-04T04:50:09;97555.69;;;11.97;74.01
21594;BME280;10959;51.328;7.322;2022-11-04T04:52:38;97553.72;;;11.99;74.03
21594;BME280;10959;51.328;7.322;2022-11-04T04:55:06;97552.28;;;11.95;74.18
21594;BME280;10959;51.328;7.322;2022-11-04T04:57:33;97563.47;;;11.88;74.28
21594;BME280;10959;51.328;7.322;2022-11-04T04:59:59;97562.75;;;11.86;74.32
21594;BME280;10959;51.328;7.322;2022-11-04T05:02:26;97562.50;;;11.89;74.47
21594;BME280;10959;51.328;7.322;2022-11-04T05:04:52;97564.97;;;11.92;74.41
21594;BME280;10959;51.328;7.322;2022-11-04T05:07:21;97568.88;;;11.88;74.26
21594;BME280;10959;51.328;7.322;2022-11-04T05:09:48;97568.88;;;11.88;74.13
21594;BME280;10959;51.328;7.322;2022-11-04T05:12:14;97572.44;;;11.89;74.33
21594;BME280;10959;51.328;7.322;2022-11-04T05:14:41;97577.94;;;11.87;73.82
21594;BME280;10959;51.328;7.322;2022-11-04T05:17:07;97578.38;;;11.81;74.08
21594;BME280;10959;51.328;7.322;2022-11-04T05:19:33;97573.00;;;11.81;74.09
21594;BME280;10959;51.328;7.322;2022-11-04T05:22:00;97588.94;;;11.84;73.96
21594;BME280;10959;51.328;7.322;2022-11-04T05:24:28;97584.31;;;11.86;74.06
21594;BME280;10959;51.328;7.322;2022-11-04T05:26:54;97583.66;;;11.83;73.87
21594;BME280;10959;51.328;7.322;2022-11-04T05:29:21;97586.47;;;11.81;74.04
21594;BME280;10959;51.328;7.322;2022-11-04T05:31:47;97581.31;;;11.78;74.18
21594;BME280;10959;51.328;7.322;2022-11-04T05:34:14;97576.47;;;11.83;74.20
21594;BME280;10959;51.328;7.322;2022-11-04T05:36:40;97591.75;;;11.83;74.05
21594;BME280;10959;51.328;7.322;2022-11-04T05:39:10;97593.06;;;11.77;73.98
21594;BME280;10959;51.328;7.322;2022-11-04T05:41:39;97598.25;;;11.80;74.14
21594;BME280;10959;51.328;7.322;2022-11-04T05:44:05;97601.94;;;11.79;73.81
21594;BME280;10959;51.328;7.322;2022-11-04T05:46:33;97604.41;;;11.82;74.04
21594;BME280;10959;51.328;7.322;2022-11-04T05:49:00;97605.25;;;11.83;74.00
21594;BME280;10959;51.328;7.322;2022-11-04T05:51:27;97612.50;;;11.82;73.83
21594;BME280;10959;51.328;7.322;2022-11-04T05:53:54;97608.19;;;11.80;73.83
21594;BME280;10959;51.328;7.322;2022-11-04T05:56:20;97600.19;;;11.78;73.56
21594;BME280;10959;51.328;7.322;2022-11-04T05:58:48;97611.94;;;11.77;73.77
21594;BME280;10959;51.328;7.322;2022-11-04T06:01:27;97611.59;;;11.57;73.57
21594;BME280;10959;51.328;7.322;2022-11-04T06:03:54;97602.59;;;11.70;73.77
21594;BME280;10959;51.328;7.322;2022-11-04T06:06:22;97598.94;;;11.71;73.77
21594;BME280;10959;51.328;7.322;2022-11-04T06:08:49;97604.31;;;11.71;73.66
21594;BME280;10959;51.328;7.322;2022-11-04T06:11:17;97601.09;;;11.66;73.52
21594;BME280;10959;51.328;7.322;2022-11-04T06:13:43;97611.88;;;11.66;73.43
21594;BME280;10959;51.328;7.322;2022-11-04T06:16:11;97608.69;;;11.61;72.99
21594;BME280;10959;51.328;7.322;2022-11-04T06:18:37;97615.50;;;11.53;73.51
21594;BME280;10959;51.328;7.322;2022-11-04T06:21:19;97607.84;;;11.34;73.57
21594;BME280;10959;51.328;7.322;2022-11-04T06:23:47;97611.28;;;11.49;73.56
21594;BME280;10959;51.328;7.322;2022-11-04T06:26:15;97612.03;;;11.51;73.65
21594;BME280;10959;51.328;7.322;2022-11-04T06:28:41;97624.00;;;11.47;73.44
21594;BME280;10959;51.328;7.322;2022-11-04T06:31:11;97625.00;;;11.46;73.60
21594;BME280;10959;51.328;7.322;2022-11-04T06:33:38;97624.22;;;11.44;73.43
21594;BME280;10959;51.328;7.322;2022-11-04T06:36:06;97636.75;;;11.45;73.66
21594;BME280;10959;51.328;7.322;2022-11-04T06:38:35;97638.66;;;11.43;73.24
21594;BME280;10959;51.328;7.322;2022-11-04T06:41:02;97644.28;;;11.40;73.67
21594;BME280;10959;51.328;7.322;2022-11-04T06:43:29;97640.84;;;11.38;73.78
21594;BME280;10959;51.328;7.322;2022-11-04T06:45:56;97650.69;;;11.39;73.72
21594;BME280;10959;51.328;7.322;2022-11-04T06:48:24;97656.38;;;11.34;73.57
21594;BME280;10959;51.328;7.322;2022-11-04T06:50:51;97658.09;;;11.35;73.96
21594;BME280;10959;51.328;7.322;2022-11-04T06:53:18;97651.88;;;11.35;73.84
21594;BME280;10959;51.328;7.322;2022-11-04T06:55:44;97656.19;;;11.37;74.03
21594;BME280;10959;51.328;7.322;2022-11-04T06:58:11;97662.41;;;11.38;74.10
21594;BME280;10959;51.328;7.322;2022-11-04T07:00:37;97657.88;;;11.38;73.97
21594;BME280;10959;51.328;7.322;2022-11-04T07:03:04;97670.63;;;11.36;73.90
21594;BME280;10959;51.328;7.322;2022-11-04T07:05:32;97673.44;;;11.35;74.10
21594;BME280;10959;51.328;7.322;2022-11-04T07:07:59;97679.56;;;11.37;74.22
21594;BME280;10959;51.328;7.322;2022-11-04T07:10:25;97672.13;;;11.40;74.10
21594;BME280;10959;51.328;7.322;2022-11-04T07:12:52;97672.97;;;11.41;74.05
21594;BME280;10959;51.328;7.322;2022-11-04T07:15:19;97679.88;;;11.45;74.29
21594;BME280;10959;51.328;7.322;2022-11-04T07:17:45;97674.47;;;11.45;74.09
21594;BME280;10959;51.328;7.322;2022-11-04T07:20:12;97681.59;;;11.46;74.36
21594;BME280;10959;51.328;7.322;2022-11-04T07:22:40;97694.88;;;11.49;74.11
21594;BME280;10959;51.328;7.322;2022-11-04T07:25:07;97701.00;;;11.51;74.21
21594;BME280;10959;51.328;7.322;2022-11-04T07:27:33;97708.34;;;11.49;74.15
21594;BME280;10959;51.328;7.322;2022-11-04T07:30:00;97707.38;;;11.50;74.12
21594;BME280;10959;51.328;7.322;2022-11-04T07:32:27;97714.47;;;11.51;74.46
21594;BME280;10959;51.328;7.322;2022-11-04T07:34:53;97711.78;;;11.51;74.47
21594;BME280;10959;51.328;7.322;2022-11-04T07:37:20;97726.03;;;11.53;74.36
21594;BME280;10959;51.328;7.322;2022-11-04T07:39:47;97725.81;;;11.56;74.40
21594;BME280;10959;51.328;7.322;2022-11-04T07:42:14;97728.38;;;11.58;74.24
21594;BME280;10959;51.328;7.322;2022-11-04T07:44:40;97736.59;;;11.56;74.63
21594;BME280;10959;51.328;7.322;2022-11-04T07:47:07;97733.34;;;11.64;74.33
21594;BME280;10959;51.328;7.322;2022-11-04T07:49:33;97735.69;;;11.69;74.30
21594;BME280;10959;51.328;7.322;2022-11-04T07:51:59;97741.09;;;11.69;74.68
21594;BME280;10959;51.328;7.322;2022-11-04T07:54:26;97734.50;;;11.73;74.70
21594;BME280;10959;51.328;7.322;2022-11-04T07:56:54;97737.97;;;11.75;74.64
21594;BME280;10959;51.328;7.322;2022-11-04T07:59:20;97739.47;;;11.79;74.64
21594;BME280;10959;51.328;7.322;2022-11-04T08:01:47;97737.63;;;11.80;74.74
21594;BME280;10959;51.328;7.322;2022-11-04T08:04:13;97733.09;;;11.80;74.99
21594;BME280;10959;51.328;7.322;2022-11-04T08:06:40;97732.91;;;11.83;74.95
21594;BME280;10959;51.328;7.322;2022-11-04T08:09:06;97739.75;;;11.87;74.80
21594;BME280;10959;51.328;7.322;2022-11-04T08:11:33;97745.63;;;11.94;74.74
21594;BME280;10959;51.328;7.322;2022-11-04T08:14:02;97742.81;;;11.96;74.83
21594;BME280;10959;51.328;7.322;2022-11-04T08:16:28;97745.16;;;12.00;75.10
21594;BME280;10959;51.328;7.322;2022-11-04T08:18:55;97748.41;;;12.05;74.76
21594;BME280;10959;51.328;7.322;2022-11-04T08:21:26;97745.38;;;12.10;75.03
21594;BME280;10959;51.328;7.322;2022-11-04T08:23:53;97745.13;;;12.13;75.08
21594;BME280;10959;51.328;7.322;2022-11-04T08:26:20;97752.69;;;12.21;75.25
21594;BME280;10959;51.328;7.322;2022-11-04T08:28:48;97754.59;;;12.32;74.97
21594;BME280;10959;51.328;7.322;2022-11-04T08:31:18;97755.88;;;12.39;74.56
21594;BME280;10959;51.328;7.322;2022-11-04T08:33:46;97746.84;;;12.51;74.69
21594;BME280;10959;51.328;7.322;2022-11-04T08:36:14;97756.09;;;12.60;74.46
21594;BME280;10959;51.328;7.322;2022-11-04T08:38:42;97752.31;;;12.62;74.18
21594;BME280;10959;51.328;7.322;2022-11-04T08:41:10;97757.25;;;12.69;74.08
21594;BME280;10959;51.328;7.322;2022-11-04T08:43:37;97756.03;;;12.73;74.10
21594;BME280;10959;51.328;7.322;2022-11-04T08:46:05;97755.31;;;12.71;73.84
21594;BME280;10959;51.328;7.322;2022-11-04T08:48:35;97757.47;;;12.66;73.30
21594;BME280;10959;51.328;7.322;2022-11-04T08:51:03;97757.47;;;12.66;73.47
21594;BME280;10959;51.328;7.322;2022-11-04T08:53:30;97764.13;;;12.73;73.59
21594;BME280;10959;51.328;7.322;2022-11-04T08:55:57;97763.59;;;12.81;73.38
21594;BME280;10959;51.328;7.322;2022-11-04T08:58:23;97753.91;;;12.89;73.36
21594;BME280;10959;51.328;7.322;2022-11-04T09:00:50;97760.09;;;13.03;73.06
21594;BME280;10959;51.328;7.322;2022-11-04T09:03:16;97752.25;;;13.11;72.91
21594;BME280;10959;51.328;7.322;2022-11-04T09:05:45;97764.97;;;13.22;72.71
21594;BME280;10959;51.328;7.322;2022-11-04T09:08:12;97766.81;;;13.32;72.75
21594;BME280;10959;51.328;7.322;2022-11-04T09:10:40;97762.94;;;13.37;72.68
21594;BME280;10959;51.328;7.322;2022-11-04T09:13:08;97768.22;;;13.38;72.93
21594;BME280;10959;51.328;7.322;2022-11-04T09:15:36;97763.66;;;13.39;72.60
21594;BME280;10959;51.328;7.322;2022-11-04T09:18:02;97763.91;;;13.47;72.69
21594;BME280;10959;51.328;7.322;2022-11-04T09:20:29;97768.13;;;13.62;73.21
21594;BME280;10959;51.328;7.322;2022-11-04T09:22:57;97756.56;;;13.72;72.97
21594;BME280;10959;51.328;7.322;2022-11-04T09:25:24;97757.94;;;13.77;72.81
21594;BME280;10959;51.328;7.322;2022-11-04T09:27:50;97768.53;;;13.69;72.18
21594;BME280;10959;51.328;7.322;2022-11-04T09:30:16;97771.81;;;13.61;71.97
21594;BME280;10959;51.328;7.322;2022-11-04T09:32:43;97777.72;;;13.55;71.99
21594;BME280;10959;51.328;7.322;2022-11-04T09:35:09;97783.38;;;13.52;72.03
21594;BME280;10959;51.328;7.322;2022-11-04T09:37:36;97774.03;;;13.56;72.38
21594;BME280;10959;51.328;7.322;2022-11-04T09:40:05;97778.72;;;13.65;71.94
21594;BME280;10959;51.328;7.322;2022-11-04T09:42:41;97767.03;;;13.65;72.14
21594;BME280;10959;51.328;7.322;2022-11-04T09:45:13;97765.91;;;13.90;72.32
21594;BME280;10959;51.328;7.322;2022-11-04T09:47:44;97762.50;;;13.99;72.03
21594;BME280;10959;51.328;7.322;2022-11-04T09:50:17;97752.38;;;14.02;71.99
21594;BME280;10959;51.328;7.322;2022-11-04T09:52:51;97767.16;;;14.09;72.02
21594;BME280;10959;51.328;7.322;2022-11-04T09:55:25;97775.28;;;14.09;71.99
21594;BME280;10959;51.328;7.322;2022-11-04T09:57:56;97772.34;;;14.12;71.87
21594;BME280;10959;51.328;7.322;2022-11-04T10:00:23;97781.06;;;14.15;72.13
21594;BME280;10959;51.328;7.322;2022-11-04T10:03:03;97771.34;;;14.02;71.95
21594;BME280;10959;51.328;7.322;2022-11-04T10:05:54;97775.53;;;14.06;71.63
21594;BME280;10959;51.328;7.322;2022-11-04T10:08:46;97754.97;;;14.03;71.85
21594;BME280;10959;51.328;7.322;2022-11-04T10:11:24;97754.09;;;14.25;70.81
21594;BME280;10959;51.328;7.322;2022-11-04T10:14:09;97760.75;;;14.32;71.13
21594;BME280;10959;51.328;7.322;2022-11-04T10:16:53;97769.34;;;14.38;71.32
21594;BME280;10959;51.328;7.322;2022-11-04T10:19:37;97778.81;;;14.43;70.90
21594;BME280;10959;51.328;7.322;2022-11-04T10:22:14;97781.84;;;14.61;70.41
21594;BME280;10959;51.328;7.322;2022-11-04T10:24:49;97785.09;;;14.66;69.77
21594;BME280;10959;51.328;7.322;2022-11-04T10:27:24;97787.75;;;14.78;69.90
21594;BME280;10959;51.328;7.322;2022-11-04T10:29:53;97779.34;;;14.92;69.68
21594;BME280;10959;51.328;7.322;2022-11-04T10:32:23;97784.22;;;14.98;69.68
21594;BME280;10959;51.328;7.322;2022-11-04T10:34:55;97786.22;;;14.96;69.14
21594;BME280;10959;51.328;7.322;2022-11-04T10:37:25;97775.97;;;15.00;68.93
21594;BME280;10959;51.328;7.322;2022-11-04T10:39:55;97780.81;;;14.96;68.89
21594;BME280;10959;51.328;7.322;2022-11-04T10:42:28;97779.78;;;14.97;68.81
21594;BME280;10959;51.328;7.322;2022-11-04T10:44:56;97780.81;;;14.96;68.47
21594;BME280;10959;51.328;7.322;2022-11-04T10:47:30;97786.97;;;14.87;69.00
21594;BME280;10959;51.328;7.322;2022-11-04T10:50:16;97798.09;;;14.84;69.07
21594;BME280;10959;51.328;7.322;2022-11-04T10:52:45;97786.53;;;15.03;69.42
21594;BME280;10959;51.328;7.322;2022-11-04T10:55:18;97787.44;;;15.03;68.98
21594;BME280;10959;51.328;7.322;2022-11-04T10:57:53;97792.84;;;15.03;68.43
21594;BME280;10959;51.328;7.322;2022-11-04T11:00:37;97805.22;;;14.85;68.48
21594;BME280;10959;51.328;7.322;2022-11-04T11:03:22;97812.34;;;14.86;68.77
21594;BME280;10959;51.328;7.322;2022-11-04T11:05:49;97822.16;;;15.10;68.51
21594;BME280;10959;51.328;7.322;2022-11-04T11:08:28;97826.50;;;15.01;68.70
21594;BME280;10959;51.328;7.322;2022-11-04T11:10:55;97828.38;;;15.21;68.63
21594;BME280;10959;51.328;7.322;2022-11-04T11:13:33;97827.78;;;15.18;68.28
21594;BME280;10959;51.328;7.322;2022-11-04T11:16:18;97828.81;;;15.06;68.39
21594;BME280;10959;51.328;7.322;2022-11-04T11:19:07;97827.97;;;15.05;68.23
21594;BME280;10959;51.328;7.322;2022-11-04T11:21:41;97828.00;;;15.26;68.18
21594;BME280;10959;51.328;7.322;2022-11-04T11:24:13;97827.25;;;15.24;68.06
21594;BME280;10959;51.328;7.322;2022-11-04T11:26:41;97836.47;;;15.33;68.14
21594;BME280;10959;51.328;7.322;2022-11-04T11:29:18;97828.25;;;15.23;67.44
21594;BME280;10959;51.328;7.322;2022-11-04T11:31:46;97829.56;;;15.29;67.75
21594;BME280;10959;51.328;7.322;2022-11-04T11:34:15;97831.69;;;15.25;67.62
21594;BME280;10959;51.328;7.322;2022-11-04T11:36:44;97831.97;;;15.22;67.11
21594;BME280;10959;51.328;7.322;2022-11-04T11:39:16;97833.72;;;15.12;66.91
21594;BME280;10959;51.328;7.322;2022-11-04T11:41:55;97839.44;;;14.97;67.13
21594;BME280;10959;51.328;7.322;2022-11-04T11:44:27;97832.50;;;15.04;67.13
21594;BME280;10959;51.328;7.322;2022-11-04T11:46:58;97841.13;;;15.10;67.87
21594;BME280;10959;51.328;7.322;2022-11-04T11:49:27;97843.31;;;15.16;68.17
21594;BME280;10959;51.328;7.322;2022-11-04T11:51:55;97849.75;;;15.15;67.94
21594;BME280;10959;51.328;7.322;2022-11-04T11:54:27;97848.28;;;15.11;68.07
21594;BME280;10959;51.328;7.322;2022-11-04T11:56:59;97846.78;;;15.18;67.67
21594;BME280;10959;51.328;7.322;2022-11-04T11:59:34;97854.69;;;15.10;67.84
21594;BME280;10959;51.328;7.322;2022-11-04T12:02:18;97850.75;;;15.02;67.87
21594;BME280;10959;51.328;7.322;2022-11-04T12:04:46;97852.31;;;15.16;68.77
21594;BME280;10959;51.328;7.322;2022-11-04T12:07:19;97856.28;;;15.12;68.38
21594;BME280;10959;51.328;7.322;2022-11-04T12:09:52;97845.78;;;15.19;68.28
21594;BME280;10959;51.328;7.322;2022-11-04T12:12:37;97857.91;;;15.03;68.39
21594;BME280;10959;51.328;7.322;2022-11-04T12:15:17;97858.50;;;15.07;68.04
21594;BME280;10959;51.328;7.322;2022-11-04T12:17:59;97855.66;;;15.09;68.14
21594;BME280;10959;51.328;7.322;2022-11-04T12:20:37;97853.69;;;15.11;67.96
21594;BME280;10959;51.328;7.322;2022-11-04T12:23:11;97861.19;;;15.18;67.67
21594;BME280;10959;51.328;7.322;2022-11-04T12:25:50;97856.16;;;15.14;67.97
21594;BME280;10959;51.328;7.322;2022-11-04T12:28:32;97851.13;;;15.09;68.00
21594;BME280;10959;51.328;7.322;2022-11-04T12:31:12;97860.50;;;15.05;67.48
21594;BME280;10959;51.328;7.322;2022-11-04T12:33:47;97857.38;;;15.10;67.16
21594;BME280;10959;51.328;7.322;2022-11-04T12:36:30;97860.13;;;14.98;67.69
21594;BME280;10959;51.328;7.322;2022-11-04T12:39:14;97862.84;;;14.98;67.98
21594;BME280;10959;51.328;7.322;2022-11-04T12:41:50;97867.53;;;15.08;66.86
21594;BME280;10959;51.328;7.322;2022-11-04T12:44:27;97861.88;;;14.99;67.02
21594;BME280;10959;51.328;7.322;2022-11-04T12:47:07;97867.28;;;14.99;67.29
21594;BME280;10959;51.328;7.322;2022-11-04T12:49:59;97865.59;;;14.87;66.73
21594;BME280;10959;51.328;7.322;2022-11-04T12:52:39;97866.06;;;14.92;66.00
21594;BME280;10959;51.328;7.322;2022-11-04T12:55:34;97868.06;;;14.79;66.89
21594;BME280;10959;51.328;7.322;2022-11-04T12:58:14;97862.13;;;14.96;66.39
21594;BME280;10959;51.328;7.322;2022-11-04T13:00:44;97864.28;;;15.14;66.79
21594;BME280;10959;51.328;7.322;2022-11-04T13:03:17;97857.13;;;15.13;66.84
21594;BME280;10959;51.328;7.322;2022-11-04T13:05:52;97853.19;;;15.17;66.95
21594;BME280;10959;51.328;7.322;2022-11-04T13:08:24;97850.69;;;15.25;67.09
21594;BME280;10959;51.328;7.322;2022-11-04T13:10:58;97862.78;;;15.21;66.53
21594;BME280;10959;51.328;7.322;2022-11-04T13:13:31;97866.50;;;15.09;65.44
21594;BME280;10959;51.328;7.322;2022-11-04T13:16:03;97865.03;;;15.04;65.45
21594;BME280;10959;51.328;7.322;2022-11-04T13:18:36;97867.81;;;14.93;65.36
21594;BME280;10959;51.328;7.322;2022-11-04T13:21:09;97877.38;;;14.97;64.97
21594;BME280;10959;51.328;7.322;2022-11-04T13:23:42;97874.94;;;14.94;65.20
21594;BME280;10959;51.328;7.322;2022-11-04T13:26:13;97876.91;;;14.92;65.13